sensor_id;sensor_type;location;lat;lon;timestamp;pressure;altitude;pressure_sealevel;temperature;humidity
40918;BME280;26644;50.248;19.032;2023-05-21T00:01:16;98643.28;;;15.36;77.11
40918;BME280;26644;50.248;19.032;2023-05-21T00:04:21;98626.41;;;15.38;76.87
40918;BME280;26644;50.248;19.032;2023-05-21T00:07:26;98633.03;;;15.37;76.97
40918;BME280;26644;50.248;19.032;2023-05-21T00:10:31;98634.38;;;15.39;76.96
40918;BME280;26644;50.248;19.032;2023-05-21T00:13:36;98625.78;;;15.41;76.81
40918;BME280;26644;50.248;19.032;2023-05-21T00:16:44;98624.13;;;15.40;77.00
40918;BME280;26644;50.248;19.032;2023-05-21T00:19:49;98631.00;;;15.42;76.79
40918;BME280;26644;50.248;19.032;2023-05-21T00:22:53;98622.59;;;15.48;76.58
40918;BME280;26644;50.248;19.032;2023-05-21T00:25:58;98637.78;;;15.50;76.60
40918;BME280;26644;50.248;19.032;2023-05-21T00:29:03;98626.78;;;15.45;76.57
40918;BME280;26644;50.248;19.032;2023-05-21T00:32:11;98633.06;;;15.51;76.76
40918;BME280;26644;50.248;19.032;2023-05-21T00:35:16;98623.97;;;15.50;76.74
40918;BME280;26644;50.248;19.032;2023-05-21T00:38:22;98630.31;;;15.51;76.83
40918;BME280;26644;50.248;19.032;2023-05-21T00:41:27;98630.31;;;15.51;76.72
40918;BME280;26644;50.248;19.032;2023-05-21T00:44:36;98622.00;;;15.51;76.73
40918;BME280;26644;50.248;19.032;2023-05-21T00:47:44;98629.72;;;15.54;76.83
40918;BME280;26644;50.248;19.032;2023-05-21T00:50:50;98617.63;;;15.50;76.58
40918;BME280;26644;50.248;19.032;2023-05-21T00:53:56;98630.72;;;15.58;76.48
40918;BME280;26644;50.248;19.032;2023-05-21T00:57:03;98619.34;;;15.59;76.47
40918;BME280;26644;50.248;19.032;2023-05-21T01:00:10;98619.03;;;15.61;76.51
40918;BME280;26644;50.248;19.032;2023-05-21T01:03:20;98614.03;;;15.63;76.44
40918;BME280;26644;50.248;19.032;2023-05-21T01:06:26;98608.19;;;15.65;76.55
40918;BME280;26644;50.248;19.032;2023-05-21T01:09:35;98598.53;;;15.62;76.27
40918;BME280;26644;50.248;19.032;2023-05-21T01:12:43;98599.03;;;15.64;76.33
40918;BME280;26644;50.248;19.032;2023-05-21T01:15:50;98608.06;;;15.70;76.37
40918;BME280;26644;50.248;19.032;2023-05-21T01:19:17;98594.13;;;15.61;76.49
40918;BME280;26644;50.248;19.032;2023-05-21T01:22:48;98602.00;;;15.68;76.60
40918;BME280;26644;50.248;19.032;2023-05-21T01:26:09;98593.22;;;15.66;76.55
40918;BME280;26644;50.248;19.032;2023-05-21T01:29:29;98600.88;;;15.69;76.74
40918;BME280;26644;50.248;19.032;2023-05-21T01:32:55;98600.56;;;15.70;76.54
40918;BME280;26644;50.248;19.032;2023-05-21T01:36:24;98592.78;;;15.72;76.49
40918;BME280;26644;50.248;19.032;2023-05-21T01:39:54;98592.06;;;15.67;76.41
40918;BME280;26644;50.248;19.032;2023-05-21T01:43:19;98601.81;;;15.64;76.64
40918;BME280;26644;50.248;19.032;2023-05-21T01:46:29;98587.69;;;15.66;76.57
40918;BME280;26644;50.248;19.032;2023-05-21T01:49:37;98594.66;;;15.63;76.88
40918;BME280;26644;50.248;19.032;2023-05-21T01:52:48;98592.69;;;15.64;76.77
40918;BME280;26644;50.248;19.032;2023-05-21T01:55:57;98587.38;;;15.67;76.83
40918;BME280;26644;50.248;19.032;2023-05-21T01:59:02;98593.28;;;15.74;76.56
40918;BME280;26644;50.248;19.032;2023-05-21T02:02:08;98582.44;;;15.78;76.42
40918;BME280;26644;50.248;19.032;2023-05-21T02:05:12;98584.25;;;15.83;76.20
40918;BME280;26644;50.248;19.032;2023-05-21T02:08:18;98580.16;;;15.80;76.24
40918;BME280;26644;50.248;19.032;2023-05-21T02:11:26;98573.09;;;15.74;76.29
40918;BME280;26644;50.248;19.032;2023-05-21T02:14:32;98574.75;;;15.75;76.40
40918;BME280;26644;50.248;19.032;2023-05-21T02:17:38;98566.88;;;15.68;76.76
40918;BME280;26644;50.248;19.032;2023-05-21T02:20:46;98572.69;;;15.67;76.72
40918;BME280;26644;50.248;19.032;2023-05-21T02:23:51;98557.13;;;15.57;76.99
40918;BME280;26644;50.248;19.032;2023-05-21T02:26:59;98576.19;;;15.58;77.01
40918;BME280;26644;50.248;19.032;2023-05-21T02:30:06;98568.91;;;15.49;77.32
40918;BME280;26644;50.248;19.032;2023-05-21T02:33:14;98568.06;;;15.48;77.40
40918;BME280;26644;50.248;19.032;2023-05-21T02:36:21;98559.59;;;15.44;77.63
40918;BME280;26644;50.248;19.032;2023-05-21T02:39:27;98574.16;;;15.50;77.23
40918;BME280;26644;50.248;19.032;2023-05-21T02:42:34;98565.94;;;15.45;77.52
40918;BME280;26644;50.248;19.032;2023-05-21T02:45:41;98569.31;;;15.42;77.56
40918;BME280;26644;50.248;19.032;2023-05-21T02:48:46;98550.69;;;15.34;77.88
40918;BME280;26644;50.248;19.032;2023-05-21T02:51:51;98554.56;;;15.33;77.72
40918;BME280;26644;50.248;19.032;2023-05-21T02:54:55;98553.25;;;15.30;77.70
40918;BME280;26644;50.248;19.032;2023-05-21T02:58:03;98553.03;;;15.26;77.90
40918;BME280;26644;50.248;19.032;2023-05-21T03:01:08;98560.69;;;15.30;77.97
40918;BME280;26644;50.248;19.032;2023-05-21T03:04:13;98563.78;;;15.28;77.99
40918;BME280;26644;50.248;19.032;2023-05-21T03:07:18;98547.38;;;15.18;77.81
40918;BME280;26644;50.248;19.032;2023-05-21T03:10:25;98545.78;;;15.17;78.03
40918;BME280;26644;50.248;19.032;2023-05-21T03:13:32;98561.94;;;15.23;77.72
40918;BME280;26644;50.248;19.032;2023-05-21T03:16:37;98551.78;;;15.19;77.74
40918;BME280;26644;50.248;19.032;2023-05-21T03:19:42;98555.00;;;15.26;77.53
40918;BME280;26644;50.248;19.032;2023-05-21T03:22:49;98559.59;;;15.31;77.41
40918;BME280;26644;50.248;19.032;2023-05-21T03:26:10;98554.56;;;15.33;77.16
40918;BME280;26644;50.248;19.032;2023-05-21T03:29:32;98560.59;;;15.35;76.78
40918;BME280;26644;50.248;19.032;2023-05-21T03:32:53;98556.94;;;15.39;76.55
40918;BME280;26644;50.248;19.032;2023-05-21T03:36:15;98554.16;;;15.39;76.04
40918;BME280;26644;50.248;19.032;2023-05-21T03:39:20;98557.94;;;15.43;75.90
40918;BME280;26644;50.248;19.032;2023-05-21T03:42:24;98557.13;;;15.43;75.72
40918;BME280;26644;50.248;19.032;2023-05-21T03:45:34;98560.41;;;15.45;75.41
40918;BME280;26644;50.248;19.032;2023-05-21T03:49:01;98553.75;;;15.46;75.22
40918;BME280;26644;50.248;19.032;2023-05-21T03:52:08;98548.63;;;15.53;75.04
40918;BME280;26644;50.248;19.032;2023-05-21T03:55:12;98547.19;;;15.56;74.86
40918;BME280;26644;50.248;19.032;2023-05-21T03:58:17;98549.75;;;15.66;74.53
40918;BME280;26644;50.248;19.032;2023-05-21T04:01:24;98547.66;;;15.72;74.04
40918;BME280;26644;50.248;19.032;2023-05-21T04:04:30;98545.19;;;15.84;73.98
40918;BME280;26644;50.248;19.032;2023-05-21T04:07:34;98541.75;;;16.01;72.81
40918;BME280;26644;50.248;19.032;2023-05-21T04:10:40;98547.94;;;16.21;72.29
40918;BME280;26644;50.248;19.032;2023-05-21T04:13:44;98545.34;;;16.47;71.26
40918;BME280;26644;50.248;19.032;2023-05-21T04:16:52;98556.84;;;16.86;70.22
40918;BME280;26644;50.248;19.032;2023-05-21T04:19:56;98558.50;;;17.18;68.83
40918;BME280;26644;50.248;19.032;2023-05-21T04:23:02;98560.69;;;17.48;67.62
40918;BME280;26644;50.248;19.032;2023-05-21T04:26:06;98561.75;;;17.60;66.52
40918;BME280;26644;50.248;19.032;2023-05-21T04:29:16;98569.47;;;17.90;66.05
40918;BME280;26644;50.248;19.032;2023-05-21T04:32:25;98568.50;;;18.30;65.27
40918;BME280;26644;50.248;19.032;2023-05-21T04:35:31;98568.16;;;18.66;62.99
40918;BME280;26644;50.248;19.032;2023-05-21T04:38:36;98563.38;;;18.75;62.24
40918;BME280;26644;50.248;19.032;2023-05-21T04:41:42;98565.66;;;18.82;61.47
40918;BME280;26644;50.248;19.032;2023-05-21T04:44:47;98568.53;;;19.03;61.13
40918;BME280;26644;50.248;19.032;2023-05-21T04:47:55;98575.34;;;19.32;59.93
40918;BME280;26644;50.248;19.032;2023-05-21T04:51:01;98574.78;;;19.48;59.05
40918;BME280;26644;50.248;19.032;2023-05-21T04:54:08;98568.09;;;19.70;58.42
40918;BME280;26644;50.248;19.032;2023-05-21T04:57:12;98577.19;;;20.09;57.53
40918;BME280;26644;50.248;19.032;2023-05-21T05:00:20;98575.91;;;20.28;56.49
40918;BME280;26644;50.248;19.032;2023-05-21T05:03:44;98560.19;;;20.44;55.55
40918;BME280;26644;50.248;19.032;2023-05-21T05:07:04;98574.72;;;20.83;54.72
40918;BME280;26644;50.248;19.032;2023-05-21T05:10:23;98578.88;;;21.11;53.01
40918;BME280;26644;50.248;19.032;2023-05-21T05:13:44;98575.31;;;21.35;52.47
40918;BME280;26644;50.248;19.032;2023-05-21T05:17:04;98586.38;;;21.56;52.11
40918;BME280;26644;50.248;19.032;2023-05-21T05:20:28;98583.00;;;21.63;50.86
40918;BME280;26644;50.248;19.032;2023-05-21T05:23:47;98593.03;;;21.76;51.13
40918;BME280;26644;50.248;19.032;2023-05-21T05:27:08;98593.41;;;22.28;50.31
40918;BME280;26644;50.248;19.032;2023-05-21T05:30:27;98587.72;;;22.65;49.26
40918;BME280;26644;50.248;19.032;2023-05-21T05:33:57;98585.88;;;23.17;48.20
40918;BME280;26644;50.248;19.032;2023-05-21T05:37:20;98591.16;;;23.50;46.57
40918;BME280;26644;50.248;19.032;2023-05-21T05:40:40;98596.44;;;23.87;45.92
40918;BME280;26644;50.248;19.032;2023-05-21T05:43:59;98587.91;;;24.35;44.54
40918;BME280;26644;50.248;19.032;2023-05-21T05:47:23;98588.72;;;24.75;43.58
40918;BME280;26644;50.248;19.032;2023-05-21T05:50:43;98592.13;;;24.84;42.38
40918;BME280;26644;50.248;19.032;2023-05-21T05:54:06;98585.25;;;24.62;42.59
40918;BME280;26644;50.248;19.032;2023-05-21T05:57:26;98582.13;;;24.64;43.03
40918;BME280;26644;50.248;19.032;2023-05-21T06:00:50;98586.69;;;24.72;42.43
40918;BME280;26644;50.248;19.032;2023-05-21T06:04:10;98583.91;;;24.95;42.38
40918;BME280;26644;50.248;19.032;2023-05-21T06:07:29;98588.59;;;25.11;41.77
40918;BME280;26644;50.248;19.032;2023-05-21T06:10:51;98587.69;;;25.49;41.80
40918;BME280;26644;50.248;19.032;2023-05-21T06:14:11;98586.13;;;25.79;40.76
40918;BME280;26644;50.248;19.032;2023-05-21T06:17:31;98588.78;;;25.95;40.19
40918;BME280;26644;50.248;19.032;2023-05-21T06:20:51;98592.34;;;26.15;39.67
40918;BME280;26644;50.248;19.032;2023-05-21T06:24:12;98583.53;;;25.93;39.75
40918;BME280;26644;50.248;19.032;2023-05-21T06:27:20;98581.09;;;25.92;39.74
40918;BME280;26644;50.248;19.032;2023-05-21T06:30:25;98576.63;;;25.87;40.03
40918;BME280;26644;50.248;19.032;2023-05-21T06:33:30;98583.97;;;26.22;40.16
40918;BME280;26644;50.248;19.032;2023-05-21T06:36:35;98578.31;;;26.83;39.25
40918;BME280;26644;50.248;19.032;2023-05-21T06:39:40;98572.69;;;27.24;37.90
40918;BME280;26644;50.248;19.032;2023-05-21T06:42:48;98568.88;;;27.47;37.55
40918;BME280;26644;50.248;19.032;2023-05-21T06:46:11;98571.53;;;27.81;36.69
40918;BME280;26644;50.248;19.032;2023-05-21T06:49:19;98580.84;;;27.85;36.48
40918;BME280;26644;50.248;19.032;2023-05-21T06:52:24;98568.41;;;27.93;36.23
40918;BME280;26644;50.248;19.032;2023-05-21T06:55:29;98558.16;;;27.70;36.06
40918;BME280;26644;50.248;19.032;2023-05-21T06:58:51;98560.88;;;28.12;36.48
40918;BME280;26644;50.248;19.032;2023-05-21T07:01:56;98558.53;;;28.25;35.29
40918;BME280;26644;50.248;19.032;2023-05-21T07:05:01;98559.75;;;28.27;35.42
40918;BME280;26644;50.248;19.032;2023-05-21T07:08:21;98550.88;;;28.36;35.32
40918;BME280;26644;50.248;19.032;2023-05-21T07:11:41;98559.50;;;28.65;35.26
40918;BME280;26644;50.248;19.032;2023-05-21T07:15:04;98545.84;;;28.88;34.48
40918;BME280;26644;50.248;19.032;2023-05-21T07:18:24;98544.28;;;29.49;33.34
40918;BME280;26644;50.248;19.032;2023-05-21T07:21:45;98542.22;;;29.96;33.36
40918;BME280;26644;50.248;19.032;2023-05-21T07:24:50;98551.69;;;30.67;32.20
40918;BME280;26644;50.248;19.032;2023-05-21T07:27:54;98554.84;;;30.88;31.28
40918;BME280;26644;50.248;19.032;2023-05-21T07:31:03;98541.28;;;30.39;31.33
40918;BME280;26644;50.248;19.032;2023-05-21T07:34:15;98536.50;;;30.29;31.69
40918;BME280;26644;50.248;19.032;2023-05-21T07:37:21;98540.34;;;30.71;31.36
40918;BME280;26644;50.248;19.032;2023-05-21T07:40:27;98541.03;;;30.93;31.11
40918;BME280;26644;50.248;19.032;2023-05-21T07:43:33;98540.34;;;31.31;30.64
40918;BME280;26644;50.248;19.032;2023-05-21T07:46:41;98543.03;;;31.52;30.36
40918;BME280;26644;50.248;19.032;2023-05-21T07:49:47;98538.41;;;31.20;29.83
40918;BME280;26644;50.248;19.032;2023-05-21T07:52:52;98546.50;;;31.22;29.78
40918;BME280;26644;50.248;19.032;2023-05-21T07:55:58;98532.66;;;30.68;30.01
40918;BME280;26644;50.248;19.032;2023-05-21T07:59:04;98526.91;;;30.86;30.00
40918;BME280;26644;50.248;19.032;2023-05-21T08:02:27;98531.66;;;31.00;29.66
40918;BME280;26644;50.248;19.032;2023-05-21T08:05:47;98535.00;;;30.84;29.45
40918;BME280;26644;50.248;19.032;2023-05-21T08:09:07;98527.09;;;30.50;30.20
40918;BME280;26644;50.248;19.032;2023-05-21T08:12:27;98516.16;;;30.52;30.06
40918;BME280;26644;50.248;19.032;2023-05-21T08:15:47;98523.50;;;30.39;30.38
40918;BME280;26644;50.248;19.032;2023-05-21T08:19:09;98530.19;;;30.77;29.89
40918;BME280;26644;50.248;19.032;2023-05-21T08:22:29;98517.88;;;31.06;29.44
40918;BME280;26644;50.248;19.032;2023-05-21T08:25:49;98525.25;;;31.48;28.51
40918;BME280;26644;50.248;19.032;2023-05-21T08:29:09;98518.47;;;31.77;28.61
40918;BME280;26644;50.248;19.032;2023-05-21T08:32:29;98524.59;;;32.13;28.11
40918;BME280;26644;50.248;19.032;2023-05-21T08:35:51;98520.13;;;32.47;27.19
40918;BME280;26644;50.248;19.032;2023-05-21T08:39:21;98517.84;;;32.65;27.13
40918;BME280;26644;50.248;19.032;2023-05-21T08:42:42;98518.03;;;32.51;26.52
40918;BME280;26644;50.248;19.032;2023-05-21T08:46:08;98516.34;;;32.23;26.64
40918;BME280;26644;50.248;19.032;2023-05-21T08:49:33;98517.34;;;31.67;27.04
40918;BME280;26644;50.248;19.032;2023-05-21T08:52:56;98511.16;;;31.76;26.96
40918;BME280;26644;50.248;19.032;2023-05-21T08:56:17;98511.69;;;31.67;27.36
40918;BME280;26644;50.248;19.032;2023-05-21T08:59:45;98507.00;;;31.91;27.64
40918;BME280;26644;50.248;19.032;2023-05-21T09:03:13;98508.31;;;32.17;26.99
40918;BME280;26644;50.248;19.032;2023-05-21T09:06:34;98499.31;;;32.23;26.61
40918;BME280;26644;50.248;19.032;2023-05-21T09:09:48;98514.47;;;32.09;26.26
40918;BME280;26644;50.248;19.032;2023-05-21T09:12:58;98501.47;;;31.73;26.17
40918;BME280;26644;50.248;19.032;2023-05-21T09:16:06;98503.09;;;31.32;26.73
40918;BME280;26644;50.248;19.032;2023-05-21T09:19:13;98497.88;;;31.20;27.11
40918;BME280;26644;50.248;19.032;2023-05-21T09:22:22;98515.41;;;31.08;27.45
40918;BME280;26644;50.248;19.032;2023-05-21T09:25:30;98497.72;;;30.89;27.66
40918;BME280;26644;50.248;19.032;2023-05-21T09:28:41;98489.72;;;30.80;27.84
40918;BME280;26644;50.248;19.032;2023-05-21T09:31:46;98503.06;;;30.80;27.61
40918;BME280;26644;50.248;19.032;2023-05-21T09:34:52;98503.88;;;30.80;27.72
40918;BME280;26644;50.248;19.032;2023-05-21T09:37:56;98493.25;;;30.92;27.15
40918;BME280;26644;50.248;19.032;2023-05-21T09:41:06;98500.38;;;31.11;27.14
40918;BME280;26644;50.248;19.032;2023-05-21T09:44:10;98494.69;;;31.14;26.81
40918;BME280;26644;50.248;19.032;2023-05-21T09:47:19;98499.59;;;31.10;27.08
40918;BME280;26644;50.248;19.032;2023-05-21T09:50:39;98492.75;;;31.04;27.23
40918;BME280;26644;50.248;19.032;2023-05-21T09:53:59;98504.31;;;30.72;27.00
40918;BME280;26644;50.248;19.032;2023-05-21T09:57:25;98494.88;;;30.22;27.37
40918;BME280;26644;50.248;19.032;2023-05-21T10:00:45;98484.00;;;30.02;27.48
40918;BME280;26644;50.248;19.032;2023-05-21T10:04:06;98482.41;;;29.83;27.52
40918;BME280;26644;50.248;19.032;2023-05-21T10:07:26;98477.22;;;29.42;27.93
40918;BME280;26644;50.248;19.032;2023-05-21T10:10:48;98464.34;;;29.16;28.21
40918;BME280;26644;50.248;19.032;2023-05-21T10:14:03;98457.47;;;29.24;27.84
40918;BME280;26644;50.248;19.032;2023-05-21T10:17:11;98479.22;;;29.63;27.18
40918;BME280;26644;50.248;19.032;2023-05-21T10:20:17;98468.31;;;29.62;28.18
40918;BME280;26644;50.248;19.032;2023-05-21T10:23:22;98463.88;;;29.64;28.03
40918;BME280;26644;50.248;19.032;2023-05-21T10:26:29;98462.66;;;29.62;28.46
40918;BME280;26644;50.248;19.032;2023-05-21T10:29:53;98459.84;;;29.65;27.54
40918;BME280;26644;50.248;19.032;2023-05-21T10:33:16;98471.97;;;29.69;27.78
40918;BME280;26644;50.248;19.032;2023-05-21T10:36:36;98472.75;;;29.74;27.64
40918;BME280;26644;50.248;19.032;2023-05-21T10:39:56;98461.06;;;29.57;27.60
40918;BME280;26644;50.248;19.032;2023-05-21T10:43:40;98477.22;;;29.67;28.39
40918;BME280;26644;50.248;19.032;2023-05-21T10:51:23;98449.25;;;28.29;28.75
40918;BME280;26644;50.248;19.032;2023-05-21T10:54:53;98459.03;;;27.65;29.66
40918;BME280;26644;50.248;19.032;2023-05-21T11:01:58;98429.44;;;26.40;31.43
40918;BME280;26644;50.248;19.032;2023-05-21T11:05:07;98440.41;;;26.15;31.16
40918;BME280;26644;50.248;19.032;2023-05-21T11:08:21;98441.25;;;25.88;31.38
40918;BME280;26644;50.248;19.032;2023-05-21T11:11:42;98434.53;;;25.36;31.88
40918;BME280;26644;50.248;19.032;2023-05-21T11:14:56;98435.81;;;25.15;32.74
40918;BME280;26644;50.248;19.032;2023-05-21T11:18:01;98428.19;;;24.93;32.34
40918;BME280;26644;50.248;19.032;2023-05-21T11:21:10;98408.09;;;24.64;33.00
40918;BME280;26644;50.248;19.032;2023-05-21T11:24:18;98416.66;;;24.51;32.12
40918;BME280;26644;50.248;19.032;2023-05-21T11:27:35;98417.78;;;24.47;33.50
40918;BME280;26644;50.248;19.032;2023-05-21T11:30:40;98424.34;;;24.54;33.89
40918;BME280;26644;50.248;19.032;2023-05-21T11:33:46;98421.00;;;24.49;34.08
40918;BME280;26644;50.248;19.032;2023-05-21T11:37:23;98417.22;;;24.37;33.90
40918;BME280;26644;50.248;19.032;2023-05-21T11:40:36;98421.94;;;24.33;34.33
40918;BME280;26644;50.248;19.032;2023-05-21T11:43:42;98404.25;;;24.29;34.68
40918;BME280;26644;50.248;19.032;2023-05-21T11:46:47;98412.97;;;24.24;34.58
40918;BME280;26644;50.248;19.032;2023-05-21T11:49:54;98406.81;;;24.18;34.33
40918;BME280;26644;50.248;19.032;2023-05-21T11:53:03;98414.72;;;24.32;34.88
40918;BME280;26644;50.248;19.032;2023-05-21T11:56:09;98400.63;;;24.29;35.36
40918;BME280;26644;50.248;19.032;2023-05-21T11:59:16;98414.59;;;24.25;35.15
40918;BME280;26644;50.248;19.032;2023-05-21T12:02:21;98403.69;;;24.20;35.82
40918;BME280;26644;50.248;19.032;2023-05-21T12:05:26;98407.66;;;24.19;35.52
40918;BME280;26644;50.248;19.032;2023-05-21T12:08:33;98406.78;;;24.15;35.50
40918;BME280;26644;50.248;19.032;2023-05-21T12:11:40;98410.47;;;23.99;35.92
40918;BME280;26644;50.248;19.032;2023-05-21T12:14:45;98406.69;;;23.91;35.79
40918;BME280;26644;50.248;19.032;2023-05-21T12:17:54;98398.94;;;23.85;35.67
40918;BME280;26644;50.248;19.032;2023-05-21T12:20:59;98405.81;;;23.87;36.02
40918;BME280;26644;50.248;19.032;2023-05-21T12:24:07;98396.97;;;23.85;35.65
40918;BME280;26644;50.248;19.032;2023-05-21T12:27:12;98387.72;;;23.85;35.67
40918;BME280;26644;50.248;19.032;2023-05-21T12:30:19;98393.13;;;23.94;35.83
40918;BME280;26644;50.248;19.032;2023-05-21T12:33:23;98404.88;;;23.99;35.79
40918;BME280;26644;50.248;19.032;2023-05-21T12:36:30;98404.19;;;24.06;35.27
40918;BME280;26644;50.248;19.032;2023-05-21T12:39:44;98398.84;;;23.97;35.44
40918;BME280;26644;50.248;19.032;2023-05-21T12:42:51;98393.41;;;23.88;35.88
40918;BME280;26644;50.248;19.032;2023-05-21T12:45:56;98410.91;;;23.82;35.74
40918;BME280;26644;50.248;19.032;2023-05-21T12:49:01;98386.09;;;23.84;35.64
40918;BME280;26644;50.248;19.032;2023-05-21T12:52:08;98390.31;;;23.94;35.09
40918;BME280;26644;50.248;19.032;2023-05-21T12:55:17;98392.41;;;23.97;34.58
40918;BME280;26644;50.248;19.032;2023-05-21T12:58:22;98375.97;;;23.95;35.61
40918;BME280;26644;50.248;19.032;2023-05-21T13:01:27;98391.78;;;23.87;35.90
40918;BME280;26644;50.248;19.032;2023-05-21T13:04:35;98374.09;;;23.83;35.74
40918;BME280;26644;50.248;19.032;2023-05-21T13:07:40;98383.09;;;23.93;36.00
40918;BME280;26644;50.248;19.032;2023-05-21T13:10:49;98368.63;;;23.90;36.04
40918;BME280;26644;50.248;19.032;2023-05-21T13:13:54;98378.88;;;24.02;36.38
40918;BME280;26644;50.248;19.032;2023-05-21T13:16:58;98387.25;;;23.99;36.02
40918;BME280;26644;50.248;19.032;2023-05-21T13:20:06;98377.13;;;23.94;36.81
40918;BME280;26644;50.248;19.032;2023-05-21T13:23:13;98368.88;;;24.01;36.51
40918;BME280;26644;50.248;19.032;2023-05-21T13:26:35;98365.41;;;24.08;36.04
40918;BME280;26644;50.248;19.032;2023-05-21T13:29:54;98375.97;;;24.18;36.34
40918;BME280;26644;50.248;19.032;2023-05-21T13:32:59;98365.69;;;24.03;37.17
40918;BME280;26644;50.248;19.032;2023-05-21T13:36:04;98378.00;;;23.98;36.29
40918;BME280;26644;50.248;19.032;2023-05-21T13:39:10;98371.00;;;24.08;36.63
40918;BME280;26644;50.248;19.032;2023-05-21T13:42:17;98368.88;;;24.01;35.02
40918;BME280;26644;50.248;19.032;2023-05-21T13:45:23;98372.84;;;24.00;35.14
40918;BME280;26644;50.248;19.032;2023-05-21T13:48:29;98371.41;;;23.90;34.26
40918;BME280;26644;50.248;19.032;2023-05-21T13:51:48;98361.94;;;23.95;35.00
40918;BME280;26644;50.248;19.032;2023-05-21T13:55:08;98378.47;;;24.00;35.45
40918;BME280;26644;50.248;19.032;2023-05-21T13:58:33;98361.78;;;23.88;36.09
40918;BME280;26644;50.248;19.032;2023-05-21T14:01:55;98361.63;;;23.81;35.56
40918;BME280;26644;50.248;19.032;2023-05-21T14:05:14;98361.13;;;23.75;34.59
40918;BME280;26644;50.248;19.032;2023-05-21T14:08:34;98370.56;;;23.67;33.20
40918;BME280;26644;50.248;19.032;2023-05-21T14:11:53;98376.53;;;23.65;33.26
40918;BME280;26644;50.248;19.032;2023-05-21T14:15:02;98351.38;;;23.49;34.63
40918;BME280;26644;50.248;19.032;2023-05-21T14:18:08;98360.31;;;23.55;33.42
40918;BME280;26644;50.248;19.032;2023-05-21T14:21:13;98360.59;;;23.50;34.17
40918;BME280;26644;50.248;19.032;2023-05-21T14:24:18;98336.13;;;23.47;34.37
40918;BME280;26644;50.248;19.032;2023-05-21T14:27:24;98344.09;;;23.64;35.38
40918;BME280;26644;50.248;19.032;2023-05-21T14:30:30;98361.50;;;23.54;34.67
40918;BME280;26644;50.248;19.032;2023-05-21T14:33:36;98355.13;;;23.57;35.45
40918;BME280;26644;50.248;19.032;2023-05-21T14:36:41;98356.09;;;23.65;35.70
40918;BME280;26644;50.248;19.032;2023-05-21T14:39:47;98379.91;;;23.74;35.76
40918;BME280;26644;50.248;19.032;2023-05-21T14:42:51;98344.19;;;23.48;35.84
40918;BME280;26644;50.248;19.032;2023-05-21T14:45:59;98362.66;;;23.53;37.00
40918;BME280;26644;50.248;19.032;2023-05-21T14:49:19;98341.88;;;23.54;37.58
40918;BME280;26644;50.248;19.032;2023-05-21T14:52:39;98350.50;;;23.65;37.12
40918;BME280;26644;50.248;19.032;2023-05-21T14:56:00;98364.13;;;23.66;36.47
40918;BME280;26644;50.248;19.032;2023-05-21T14:59:19;98352.91;;;23.47;37.76
40918;BME280;26644;50.248;19.032;2023-05-21T15:02:41;98357.13;;;23.37;38.32
40918;BME280;26644;50.248;19.032;2023-05-21T15:06:00;98363.66;;;23.25;38.97
40918;BME280;26644;50.248;19.032;2023-05-21T15:09:20;98337.47;;;23.17;39.79
40918;BME280;26644;50.248;19.032;2023-05-21T15:12:40;98346.88;;;23.25;40.27
40918;BME280;26644;50.248;19.032;2023-05-21T15:15:59;98358.91;;;23.26;39.21
40918;BME280;26644;50.248;19.032;2023-05-21T15:19:21;98355.44;;;23.32;39.76
40918;BME280;26644;50.248;19.032;2023-05-21T15:22:41;98341.28;;;23.25;39.70
40918;BME280;26644;50.248;19.032;2023-05-21T15:26:00;98350.03;;;23.23;40.35
40918;BME280;26644;50.248;19.032;2023-05-21T15:29:20;98355.09;;;23.18;41.32
40918;BME280;26644;50.248;19.032;2023-05-21T15:32:39;98334.53;;;23.10;41.32
40918;BME280;26644;50.248;19.032;2023-05-21T15:36:01;98354.19;;;23.30;40.44
40918;BME280;26644;50.248;19.032;2023-05-21T15:39:21;98346.75;;;23.02;38.82
40918;BME280;26644;50.248;19.032;2023-05-21T15:42:41;98348.44;;;23.06;38.99
40918;BME280;26644;50.248;19.032;2023-05-21T15:46:00;98339.41;;;22.97;39.29
40918;BME280;26644;50.248;19.032;2023-05-21T15:49:19;98353.28;;;23.09;39.33
40918;BME280;26644;50.248;19.032;2023-05-21T15:52:41;98338.69;;;23.00;39.90
40918;BME280;26644;50.248;19.032;2023-05-21T15:56:01;98330.41;;;22.88;40.07
40918;BME280;26644;50.248;19.032;2023-05-21T15:59:21;98339.06;;;22.99;40.17
40918;BME280;26644;50.248;19.032;2023-05-21T16:02:40;98341.78;;;22.95;39.89
40918;BME280;26644;50.248;19.032;2023-05-21T16:05:45;98337.97;;;23.03;39.45
40918;BME280;26644;50.248;19.032;2023-05-21T16:08:52;98363.25;;;22.91;40.41
40918;BME280;26644;50.248;19.032;2023-05-21T16:11:58;98352.81;;;22.88;40.82
40918;BME280;26644;50.248;19.032;2023-05-21T16:15:03;98349.13;;;22.84;40.66
40918;BME280;26644;50.248;19.032;2023-05-21T16:18:09;98350.66;;;22.81;40.64
40918;BME280;26644;50.248;19.032;2023-05-21T16:21:14;98337.13;;;22.83;40.27
40918;BME280;26644;50.248;19.032;2023-05-21T16:24:22;98353.53;;;22.85;39.67
40918;BME280;26644;50.248;19.032;2023-05-21T16:27:26;98351.63;;;22.89;39.06
40918;BME280;26644;50.248;19.032;2023-05-21T16:30:31;98348.75;;;22.85;39.70
40918;BME280;26644;50.248;19.032;2023-05-21T16:33:36;98342.72;;;22.83;39.35
40918;BME280;26644;50.248;19.032;2023-05-21T16:36:41;98360.59;;;22.79;39.20
40918;BME280;26644;50.248;19.032;2023-05-21T16:39:48;98354.63;;;22.64;39.18
40918;BME280;26644;50.248;19.032;2023-05-21T16:43:07;98361.13;;;22.68;39.27
40918;BME280;26644;50.248;19.032;2023-05-21T16:46:27;98359.25;;;22.56;39.27
40918;BME280;26644;50.248;19.032;2023-05-21T16:49:46;98360.78;;;22.54;39.45
40918;BME280;26644;50.248;19.032;2023-05-21T16:53:06;98352.84;;;22.56;39.63